| time (UTC) | temp F | wind direction | speed MPH | gust MPH | rain 1hr in | rain 24hr in | rain mn in | humidity % | barometer mb |
| 20260505173556 | 21 | 69 | 9.0 | 18.0 | 0.00 | 0.80 | 0.00 | 1009.7 | |
| 20260505173159 | 20 | 86 | 6.0 | 16.0 | 0.00 | 0.80 | 0.00 | 1009.7 | |
| 20260505172601 | 80 | 360 | 7.0 | 16.0 | 0.00 | 0.80 | 0.00 | 85 | 1009.7 |
| 20260505172057 | 79 | 80 | 8.0 | 15.0 | 0.00 | 0.80 | 0.00 | 85 | 1009.8 |
| 20260505171557 | 79 | 113 | 6.0 | 12.0 | 0.00 | 0.80 | 0.00 | 85 | 1009.7 |
| 20260505171100 | 79 | 107 | 5.0 | 14.0 | 0.00 | 0.80 | 0.00 | 85 | 1009.9 |
| 20260505170557 | 79 | 87 | 6.0 | 14.0 | 0.00 | 0.80 | 0.00 | 85 | 1009.9 |
| 20260505170136 | 79 | 67 | 4.0 | 12.0 | 0.00 | 0.80 | 0.00 | 85 | 1009.9 |
| 20260505165557 | 19 | 80 | 6.0 | 14.0 | 0.00 | 0.80 | 0.00 | 100 | 1010.0 |
| 20260505165055 | 19 | 102 | 5.0 | 14.0 | 0.00 | 0.80 | 0.00 | 1010.1 | |
| 20260505164555 | 79 | 96 | 6.0 | 13.0 | 0.00 | 0.80 | 0.00 | 85 | 1010.2 |
| 20260505164059 | 79 | 86 | 7.0 | 13.0 | 0.00 | 0.80 | 0.00 | 1010.2 | |
| 20260505163556 | 79 | 103 | 6.0 | 13.0 | 0.00 | 0.80 | 0.00 | 1010.3 | |
| 20260505163059 | 18 | 61 | 5.0 | 13.0 | 0.00 | 0.80 | 0.00 | 1010.4 | |
| 20260505162555 | 18 | 71 | 8.0 | 14.0 | 0.00 | 0.80 | 0.00 | 85 | 1010.4 |
| 20260505162056 | 79 | 94 | 7.0 | 16.0 | 0.00 | 0.80 | 0.00 | 1010.4 | |
| 20260505161604 | 78 | 70 | 9.0 | 16.0 | 0.00 | 0.80 | 0.00 | 85 | 1010.5 |
| 20260505161056 | 78 | 85 | 9.0 | 15.0 | 0.00 | 0.80 | 0.00 | 85 | 1010.7 |
| 20260505160559 | 16 | 71 | 8.0 | 15.0 | 0.00 | 0.80 | 0.00 | 100 | 1010.7 |
| 20260505153100 | 78 | 73 | 10.0 | 15.0 | 0.00 | 0.80 | 0.00 | 85 | 1011.1 |
| 20260505152556 | 78 | 34 | 9.0 | 20.0 | 0.00 | 0.80 | 0.00 | 85 | 1011.0 |
| 20260505152056 | 78 | 91 | 10.0 | 22.0 | 0.00 | 0.80 | 0.00 | 85 | 1011.1 |
| 20260505151558 | 78 | 54 | 13.0 | 24.0 | 0.00 | 0.80 | 0.00 | 86 | 1011.1 |
| 20260505151056 | 78 | 66 | 13.0 | 24.0 | 0.00 | 0.80 | 0.00 | 86 | 1011.1 |
| 20260505150557 | 78 | 89 | 10.0 | 20.0 | 0.00 | 0.80 | 0.00 | 86 | 1011.0 |
| 20260505140556 | 78 | 94 | 5.0 | 14.0 | 0.03 | 0.80 | 0.00 | 89 | 1011.4 |
| 20260505124600 | -13 | 98 | 12.0 | 29.0 | 0.52 | 0.65 | 0.65 | 1012.4 | |
| 20260505124100 | -20 | 152 | 12.0 | 29.0 | 0.42 | 0.54 | 0.54 | 1012.5 | |
| 20260505123603 | 78 | 98 | 9.0 | 18.0 | 0.32 | 0.42 | 0.42 | 1012.4 | |
| 20260505123114 | -43 | 71 | 10.0 | 20.0 | 0.28 | 0.38 | 0.38 | 1012.4 | |
| 20260505122556 | 77 | 78 | 7.0 | 25.0 | 0.22 | 0.32 | 0.32 | 89 | 1012.3 |
| 20260505122100 | 77 | 76 | 13.0 | 25.0 | 0.17 | 0.27 | 0.27 | 89 | 1012.1 |
| 20260505121601 | 77 | 77 | 13.0 | 25.0 | 0.14 | 0.24 | 0.24 | 88 | 1012.1 |
| 20260505121058 | 77 | 115 | 13.0 | 25.0 | 0.13 | 0.23 | 0.23 | 88 | 1012.2 |
| 20260505120557 | 77 | 86 | 9.0 | 20.0 | 0.13 | 0.23 | 0.23 | 88 | 1012.4 |
| 20260505120100 | 77 | 64 | 12.0 | 20.0 | 0.12 | 0.21 | 0.21 | 88 | 1012.4 |
| 20260505115601 | 78 | 87 | 8.0 | 17.0 | 0.08 | 0.17 | 0.17 | 88 | 1012.4 |
| 20260505115059 | 78 | 72 | 7.0 | 20.0 | 0.04 | 0.13 | 0.13 | 87 | 1012.3 |
| 20260505114614 | 78 | 90 | 10.0 | 20.0 | 0.03 | 0.12 | 0.12 | 87 | 1012.1 |
| 20260505114057 | 78 | 63 | 10.0 | 20.0 | 0.05 | 0.12 | 0.12 | 87 | 1012.2 |
| 20260505113603 | 79 | 93 | 9.0 | 20.0 | 0.06 | 0.10 | 0.10 | 87 | 1012.1 |
| 20260505113058 | 79 | 82 | 5.0 | 14.0 | 0.06 | 0.10 | 0.10 | 87 | 1012.0 |
| 20260505112603 | 79 | 96 | 6.0 | 17.0 | 0.06 | 0.10 | 0.10 | 87 | 1012.0 |
| 20260505112059 | 79 | 93 | 7.0 | 17.0 | 0.06 | 0.10 | 0.10 | 87 | 1012.0 |
| 20260505111609 | 79 | 90 | 10.0 | 21.0 | 0.06 | 0.10 | 0.10 | 87 | 1011.8 |
| 20260505111056 | 79 | 113 | 11.0 | 21.0 | 0.06 | 0.10 | 0.10 | 87 | 1011.8 |
| 20260505110556 | 79 | 87 | 12.0 | 20.0 | 0.07 | 0.10 | 0.10 | 87 | 1011.7 |
| 20260505110119 | 79 | 92 | 6.0 | 15.0 | 0.06 | 0.09 | 0.09 | 87 | 1011.6 |
| 20260505102056 | 78 | 78 | 10.0 | 18.0 | 0.01 | 0.04 | 0.04 | 87 | 1011.4 |
| 20260505101555 | 78 | 91 | 9.0 | 22.0 | 0.01 | 0.04 | 0.04 | 86 | 1011.3 |
| 20260505101057 | 78 | 101 | 11.0 | 27.0 | 0.01 | 0.04 | 0.04 | 85 | 1011.3 |
| 20260505100556 | 79 | 101 | 15.0 | 27.0 | 0.00 | 0.03 | 0.03 | 84 | 1011.3 |
| 20260505100055 | 80 | 89 | 10.0 | 18.0 | 0.00 | 0.03 | 0.03 | 85 | 1011.2 |
| 20260505095556 | 80 | 81 | 8.0 | 17.0 | 0.00 | 0.03 | 0.03 | 85 | 1011.0 |
| 20260505095057 | 80 | 360 | 7.0 | 18.0 | 0.00 | 0.03 | 0.03 | 85 | 1011.1 |
| 20260505094556 | 80 | 88 | 10.0 | 18.0 | 0.00 | 0.03 | 0.03 | 85 | 1011.0 |
| 20260505094056 | 80 | 73 | 9.0 | 16.0 | 0.00 | 0.03 | 0.03 | 86 | 1011.0 |
| 20260505093600 | 80 | 45 | 10.0 | 16.0 | 0.01 | 0.03 | 0.03 | 86 | 1011.0 |
| 20260505093057 | 80 | 100 | 10.0 | 17.0 | 0.02 | 0.03 | 0.03 | 86 | 1010.9 |
| 20260505092556 | 79 | 79 | 10.0 | 17.0 | 0.02 | 0.03 | 0.03 | 86 | 1010.8 |
| 20260505092056 | 79 | 113 | 7.0 | 17.0 | 0.02 | 0.03 | 0.03 | 85 | 1010.9 |
| 20260505091557 | 79 | 80 | 9.0 | 17.0 | 0.02 | 0.03 | 0.03 | 85 | 1010.8 |
| 20260505091055 | 79 | 63 | 9.0 | 17.0 | 0.02 | 0.03 | 0.03 | 85 | 1010.8 |
| 20260505090555 | 79 | 71 | 8.0 | 21.0 | 0.03 | 0.03 | 0.03 | 85 | 1010.8 |
| 20260505090101 | 80 | 117 | 6.0 | 21.0 | 0.03 | 0.03 | 0.03 | 85 | 1010.8 |
| 20260505085556 | 80 | 86 | 13.0 | 21.0 | 0.03 | 0.03 | 0.03 | 84 | 1010.9 |
| 20260505085057 | 80 | 74 | 10.0 | 16.0 | 0.03 | 0.03 | 0.03 | 85 | 1010.7 |
| 20260505084557 | 80 | 58 | 8.0 | 15.0 | 0.03 | 0.03 | 0.03 | 85 | 1010.5 |
| 20260505084055 | 80 | 86 | 7.0 | 18.0 | 0.03 | 0.03 | 0.03 | 85 | 1010.4 |
| 20260505083557 | 80 | 79 | 10.0 | 18.0 | 0.02 | 0.02 | 0.02 | 85 | 1010.4 |
| 20260505083108 | 80 | 90 | 8.0 | 16.0 | 0.01 | 0.01 | 0.01 | 84 | 1010.4 |
| 20260505082556 | 80 | 124 | 9.0 | 16.0 | 0.01 | 0.01 | 0.01 | 84 | 1010.3 |
| 20260505082056 | 80 | 80 | 7.0 | 17.0 | 0.01 | 0.01 | 0.01 | 84 | 1010.3 |
| 20260505081557 | 80 | 87 | 10.0 | 23.0 | 0.01 | 0.01 | 0.01 | 84 | 1010.1 |
| 20260505081057 | 79 | 108 | 9.0 | 23.0 | 0.01 | 0.01 | 0.01 | 84 | 1010.1 |
| 20260505080556 | 80 | 76 | 14.0 | 26.0 | 0.00 | 0.00 | 0.00 | 83 | 1010.2 |
| 20260505080056 | 80 | 94 | 11.0 | 26.0 | 0.00 | 0.00 | 0.00 | 82 | 1010.1 |
| 20260505075556 | 81 | 84 | 16.0 | 26.0 | 0.00 | 0.00 | 0.00 | 81 | 1010.1 |
| 20260505075056 | 82 | 74 | 9.0 | 19.0 | 0.00 | 0.00 | 0.00 | 81 | 1010.0 |
| 20260505074559 | 82 | 94 | 10.0 | 19.0 | 0.00 | 0.00 | 0.00 | 81 | 1009.8 |
| 20260505074056 | 82 | 83 | 10.0 | 25.0 | 0.00 | 0.00 | 0.00 | 80 | 1009.7 |
| 20260505073559 | 82 | 67 | 11.0 | 25.0 | 0.00 | 0.00 | 0.00 | 78 | 1009.7 |
| 20260505073105 | 84 | 65 | 14.0 | 25.0 | 0.00 | 0.00 | 0.00 | 75 | 1009.8 |
| 20260505072557 | 84 | 104 | 14.0 | 23.0 | 0.00 | 0.00 | 0.00 | 73 | 1009.6 |
| 20260505072059 | 84 | 92 | 16.0 | 22.0 | 0.00 | 0.00 | 0.00 | 72 | 1009.5 |
| 20260505071601 | 85 | 91 | 14.0 | 22.0 | 0.00 | 0.00 | 0.00 | 72 | 1009.5 |
| 20260505071059 | 85 | 88 | 13.0 | 20.0 | 0.00 | 0.00 | 0.00 | 72 | 1009.5 |
| 20260505070559 | 85 | 76 | 12.0 | 20.0 | 0.00 | 0.00 | 0.00 | 73 | 1009.6 |
| 20260505070059 | 85 | 85 | 9.0 | 19.0 | 0.00 | 0.00 | 0.00 | 73 | 1009.7 |
| 20260505065558 | 86 | 89 | 10.0 | 19.0 | 0.00 | 0.00 | 0.00 | 73 | 1009.6 |
| 20260505065101 | 85 | 89 | 11.0 | 26.0 | 0.00 | 0.00 | 0.00 | 73 | 1009.6 |
| 20260505064604 | 85 | 81 | 15.0 | 26.0 | 0.00 | 0.00 | 0.00 | 73 | 1009.6 |
| 20260505064058 | 85 | 69 | 13.0 | 25.0 | 0.00 | 0.00 | 0.00 | 73 | 1009.6 |
| 20260505063558 | 85 | 91 | 14.0 | 25.0 | 0.00 | 0.00 | 0.00 | 74 | 1009.6 |
| 20260505063057 | 85 | 80 | 16.0 | 25.0 | 0.00 | 0.00 | 0.00 | 74 | 1009.6 |
| 20260505062559 | 84 | 54 | 13.0 | 27.0 | 0.00 | 0.00 | 0.00 | 75 | 1009.6 |
| 20260505062100 | 83 | 83 | 13.0 | 30.0 | 0.00 | 0.00 | 0.00 | 75 | 1009.5 |
| 20260505061557 | 84 | 80 | 16.0 | 30.0 | 0.00 | 0.00 | 0.00 | 73 | 1009.5 |
| 20260505061057 | 86 | 72 | 12.0 | 23.0 | 0.00 | 0.00 | 0.00 | 71 | 1009.6 |
| 20260505060557 | 86 | 71 | 14.0 | 23.0 | 0.00 | 0.00 | 0.00 | 71 | 1009.6 |
| 20260505060103 | 86 | 78 | 12.0 | 23.0 | 0.00 | 0.00 | 0.00 | 70 | 1009.5 |
| 20260505055558 | 86 | 80 | 13.0 | 23.0 | 0.00 | 0.00 | 0.00 | 70 | 1009.6 |
| 20260505055101 | 86 | 84 | 14.0 | 24.0 | 0.00 | 0.00 | 0.00 | 68 | 1009.7 |
| 20260505054604 | 87 | 59 | 13.0 | 26.0 | 0.00 | 0.00 | 0.00 | 70 | 1009.7 |
| 20260505054059 | 86 | 83 | 16.0 | 26.0 | 0.00 | 0.00 | 0.00 | 68 | 1009.7 |
| 20260505053557 | 87 | 55 | 12.0 | 21.0 | 0.00 | 0.00 | 0.00 | 69 | 1009.7 |
| 20260505053111 | 86 | 72 | 12.0 | 21.0 | 0.00 | 0.00 | 0.00 | 69 | 1009.7 |
| 20260505052559 | 87 | 46 | 12.0 | 21.0 | 0.00 | 0.00 | 0.00 | 69 | 1009.6 |
| 20260505052058 | 87 | 78 | 12.0 | 22.0 | 0.00 | 0.00 | 0.00 | 69 | 1009.6 |
| 20260505051600 | 87 | 90 | 12.0 | 25.0 | 0.00 | 0.00 | 0.00 | 68 | 1009.6 |
| 20260505051059 | 87 | 84 | 14.0 | 25.0 | 0.00 | 0.00 | 0.00 | 68 | 1009.6 |
| 20260505050557 | 87 | 87 | 14.0 | 21.0 | 0.00 | 0.00 | 0.00 | 68 | 1009.6 |
| 20260505041615 | 87 | 83 | 17.0 | 28.0 | 0.00 | 0.00 | 0.00 | 67 | 1009.6 |
| 20260505041058 | 87 | 81 | 12.0 | 28.0 | 0.00 | 0.00 | 0.00 | 67 | 1009.6 |
| 20260505040600 | 87 | 28 | 15.0 | 23.0 | 0.00 | 0.00 | 0.00 | 68 | 1009.6 |
| 20260505040106 | 88 | 43 | 12.0 | 24.0 | 0.00 | 0.00 | 0.00 | 67 | 1009.7 |
| 20260505035556 | 88 | 102 | 13.0 | 24.0 | 0.00 | 0.00 | 0.00 | 67 | 1009.7 |
| 20260505035059 | 88 | 107 | 14.0 | 23.0 | 0.00 | 0.00 | 0.00 | 67 | 1009.8 |
| 20260505034607 | 88 | 44 | 9.0 | 23.0 | 0.00 | 0.00 | 0.00 | 67 | 1009.8 |
| 20260505034057 | 87 | 81 | 12.0 | 23.0 | 0.00 | 0.00 | 0.00 | 68 | 1009.7 |
| 20260505033559 | 87 | 51 | 14.0 | 23.0 | 0.00 | 0.00 | 0.00 | 66 | 1009.8 |
| 20260505033059 | 88 | 72 | 13.0 | 26.0 | 0.00 | 0.00 | 0.00 | 67 | 1009.9 |
| 20260505032559 | 87 | 109 | 14.0 | 26.0 | 0.00 | 0.00 | 0.00 | 67 | 1010.0 |
| 20260505032102 | 87 | 74 | 17.0 | 26.0 | 0.00 | 0.00 | 0.00 | 67 | 1010.0 |
| 20260505031606 | 86 | 89 | 13.0 | 23.0 | 0.00 | 0.00 | 0.00 | 70 | 1010.0 |
| 20260505031101 | 86 | 69 | 13.0 | 21.0 | 0.00 | 0.00 | 0.00 | 69 | 1010.1 |
| 20260505030600 | 87 | 61 | 11.0 | 19.0 | 0.00 | 0.00 | 0.00 | 68 | 1010.2 |
| 20260505030100 | 88 | 74 | 12.0 | 20.0 | 0.00 | 0.00 | 0.00 | 64 | 1010.3 |
| 20260505025558 | 88 | 67 | 12.0 | 20.0 | 0.00 | 0.00 | 0.00 | 66 | 1010.2 |
| 20260505025059 | 88 | 82 | 12.0 | 26.0 | 0.00 | 0.00 | 0.00 | 66 | 1010.3 |
| 20260505024558 | 87 | 86 | 15.0 | 26.0 | 0.00 | 0.00 | 0.00 | 68 | 1010.4 |
| 20260505024059 | 87 | 82 | 12.0 | 23.0 | 0.00 | 0.00 | 0.00 | 69 | 1010.4 |
| 20260505023556 | 87 | 55 | 13.0 | 23.0 | 0.00 | 0.00 | 0.00 | 69 | 1010.4 |
| 20260505023104 | 88 | 74 | 12.0 | 21.0 | 0.00 | 0.00 | 0.00 | 69 | 1010.7 |
| 20260505022556 | 88 | 96 | 13.0 | 21.0 | 0.00 | 0.00 | 0.00 | 67 | 1010.7 |
| 20260505022057 | 88 | 107 | 13.0 | 21.0 | 0.00 | 0.00 | 0.00 | 66 | 1010.8 |
| 20260505021559 | 88 | 55 | 13.0 | 21.0 | 0.00 | 0.00 | 0.00 | 65 | 1010.9 |
| 20260505021059 | 88 | 96 | 13.0 | 22.0 | 0.00 | 0.00 | 0.00 | 65 | 1011.0 |
| 20260505020557 | 87 | 69 | 13.0 | 22.0 | 0.00 | 0.00 | 0.00 | 66 | 1011.1 |
| 20260505020058 | 88 | 51 | 13.0 | 22.0 | 0.00 | 0.00 | 0.00 | 67 | 1011.1 |
| 20260505015559 | 88 | 108 | 10.0 | 22.0 | 0.00 | 0.00 | 0.00 | 66 | 1011.0 |
| 20260505015102 | 87 | 77 | 13.0 | 22.0 | 0.00 | 0.00 | 0.00 | 67 | 1011.1 |
| 20260505014557 | 87 | 74 | 15.0 | 23.0 | 0.00 | 0.00 | 0.00 | 67 | 1011.1 |
| 20260505014058 | 88 | 44 | 12.0 | 23.0 | 0.00 | 0.00 | 0.00 | 66 | 1011.1 |
| 20260505013556 | 88 | 91 | 12.0 | 24.0 | 0.00 | 0.00 | 0.00 | 67 | 1011.1 |
| 20260505013100 | 87 | 81 | 9.0 | 24.0 | 0.00 | 0.00 | 0.00 | 68 | 1011.2 |
| 20260505012557 | 87 | 360 | 17.0 | 24.0 | 0.00 | 0.00 | 0.00 | 68 | 1011.3 |
| 20260505012057 | 87 | 62 | 13.0 | 20.0 | 0.00 | 0.00 | 0.00 | 69 | 1011.4 |
| 20260505011558 | 86 | 67 | 14.0 | 20.0 | 0.00 | 0.00 | 0.00 | 69 | 1011.4 |
| 20260505011100 | 86 | 100 | 10.0 | 20.0 | 0.00 | 0.00 | 0.00 | 70 | 1011.4 |
| 20260505010557 | 87 | 75 | 10.0 | 23.0 | 0.00 | 0.00 | 0.00 | 69 | 1011.5 |
| 20260505010057 | 87 | 86 | 14.0 | 23.0 | 0.00 | 0.00 | 0.00 | 69 | 1011.5 |
| 20260505005557 | 87 | 81 | 15.0 | 24.0 | 0.00 | 0.00 | 0.00 | 68 | 1011.6 |
| 20260505005057 | 87 | 80 | 11.0 | 24.0 | 0.00 | 0.00 | 0.00 | 68 | 1011.7 |
| 20260505004559 | 86 | 109 | 14.0 | 24.0 | 0.00 | 0.00 | 0.00 | 68 | 1011.8 |
| 20260505004057 | -61 | 69 | 11.0 | 24.0 | 0.00 | 0.00 | 0.00 | 70 | 1011.7 |
| 20260505003557 | 87 | 59 | 13.0 | 23.0 | 0.00 | 0.00 | 0.00 | 69 | 1011.7 |
| 20260505003058 | 87 | 72 | 13.0 | 23.0 | 0.00 | 0.00 | 0.00 | 68 | 1011.8 |
| 20260505002557 | 87 | 51 | 11.0 | 23.0 | 0.00 | 0.00 | 0.00 | 67 | 1011.9 |
| 20260505002057 | 87 | 92 | 14.0 | 23.0 | 0.00 | 0.00 | 0.00 | 67 | 1011.9 |
| 20260505001558 | 87 | 96 | 11.0 | 23.0 | 0.00 | 0.00 | 0.00 | 68 | 1012.0 |
| 20260505001056 | 87 | 72 | 12.0 | 25.0 | 0.00 | 0.00 | 0.00 | 69 | 1012.1 |
| 20260505000558 | 86 | 352 | 13.0 | 25.0 | 0.00 | 0.00 | 0.00 | 69 | 1012.1 |
| 20260505000108 | 86 | 82 | 15.0 | 25.0 | 0.00 | 0.00 | 0.00 | 69 | 1012.1 |
| 20260504235555 | 86 | 70 | 13.0 | 22.0 | 0.00 | 0.00 | 0.00 | 69 | 1012.2 |
| 20260504235055 | 86 | 79 | 13.0 | 22.0 | 0.00 | 0.00 | 0.00 | 68 | 1012.2 |
| 20260504234622 | 87 | 82 | 11.0 | 21.0 | 0.00 | 0.00 | 0.00 | 68 | 1012.3 |
| 20260504234054 | 86 | 80 | 11.0 | 25.0 | 0.00 | 0.00 | 0.00 | 69 | 1012.2 |
| 20260504233554 | 86 | 83 | 11.0 | 25.0 | 0.00 | 0.00 | 0.00 | 70 | 1012.3 |
| 20260504233058 | 86 | 75 | 13.0 | 23.0 | 0.00 | 0.00 | 0.00 | 70 | 1012.3 |
| 20260504232555 | 86 | 87 | 12.0 | 25.0 | 0.00 | 0.00 | 0.00 | 70 | 1012.3 |
| 20260504232057 | 86 | 81 | 14.0 | 25.0 | 0.00 | 0.00 | 0.00 | 70 | 1012.3 |
| 20260504231603 | 85 | 82 | 13.0 | 25.0 | 0.00 | 0.00 | 0.00 | 69 | 1012.2 |
| 20260504231057 | 85 | 80 | 11.0 | 23.0 | 0.00 | 0.00 | 0.00 | 70 | 1012.2 |
| 20260504230600 | -61 | 99 | 12.0 | 23.0 | 0.00 | 0.00 | 0.00 | 69 | 1012.2 |
| 20260504230058 | 85 | 67 | 11.0 | 23.0 | 0.00 | 0.00 | 0.00 | 70 | 1012.3 |
| 20260504225557 | -61 | 65 | 13.0 | 23.0 | 0.00 | 0.00 | 0.00 | 1012.3 | |
| 20260504225056 | 85 | 66 | 12.0 | 20.0 | 0.00 | 0.00 | 0.00 | 71 | 1012.2 |
| 20260504224556 | 85 | 115 | 12.0 | 19.0 | 0.00 | 0.00 | 0.00 | 72 | 1012.3 |
| 20260504224102 | 85 | 110 | 12.0 | 19.0 | 0.00 | 0.00 | 0.00 | 72 | 1012.3 |
| 20260504223558 | 84 | 103 | 13.0 | 17.0 | 0.00 | 0.00 | 0.00 | 72 | 1012.3 |
| 20260504223058 | 85 | 98 | 11.0 | 17.0 | 0.00 | 0.00 | 0.00 | 73 | 1012.3 |
| 20260504222602 | 85 | 59 | 7.0 | 15.0 | 0.00 | 0.00 | 0.00 | 73 | 1012.3 |
| 20260504222057 | 85 | 57 | 10.0 | 19.0 | 0.00 | 0.00 | 0.00 | 74 | 1012.2 |
| 20260504221609 | 85 | 63 | 11.0 | 21.0 | 0.00 | 0.00 | 0.00 | 74 | 1012.3 |
| 20260504221057 | 84 | 44 | 10.0 | 22.0 | 0.00 | 0.00 | 0.00 | 73 | 1012.1 |
| 20260504220557 | 84 | 91 | 12.0 | 22.0 | 0.00 | 0.00 | 0.00 | 73 | 1012.1 |
| 20260504220059 | 84 | 67 | 13.0 | 22.0 | 0.00 | 0.00 | 0.00 | 73 | 1012.2 |
| 20260504215557 | 84 | 67 | 11.0 | 18.0 | 0.00 | 0.00 | 0.00 | 72 | 1012.1 |
| 20260504215055 | 84 | 94 | 10.0 | 18.0 | 0.00 | 0.00 | 0.00 | 73 | 1012.1 |
| 20260504214600 | 84 | 65 | 8.0 | 15.0 | 0.00 | 0.00 | 0.00 | 73 | 1012.0 |
| 20260504214057 | 84 | 76 | 6.0 | 18.0 | 0.00 | 0.00 | 0.00 | 73 | 1012.0 |
| 20260504213555 | 84 | 101 | 10.0 | 18.0 | 0.00 | 0.00 | 0.00 | 74 | 1011.9 |
| 20260504213058 | 83 | 69 | 10.0 | 16.0 | 0.00 | 0.00 | 0.00 | 74 | 1011.9 |
| 20260504212557 | 83 | 122 | 8.0 | 15.0 | 0.00 | 0.00 | 0.00 | 75 | 1011.8 |
| 20260504212055 | 83 | 89 | 8.0 | 15.0 | 0.00 | 0.00 | 0.00 | 76 | 1011.9 |
| 20260504211558 | 83 | 57 | 8.0 | 16.0 | 0.00 | 0.00 | 0.00 | 76 | 1011.9 |
| 20260504211058 | 83 | 92 | 10.0 | 18.0 | 0.00 | 0.00 | 0.00 | 76 | 1011.9 |
| 20260504210555 | 82 | 76 | 7.0 | 18.0 | 0.00 | 0.00 | 0.00 | 77 | 1011.9 |
| 20260504210110 | 82 | 106 | 5.0 | 15.0 | 0.00 | 0.00 | 0.00 | 77 | 1011.8 |
| 20260504205557 | 82 | 68 | 10.0 | 15.0 | 0.00 | 0.00 | 0.00 | 77 | 1011.7 |
| 20260504205058 | 81 | 103 | 9.0 | 15.0 | 0.00 | 0.00 | 0.00 | 77 | 1011.6 |
| 20260504204602 | 81 | 79 | 9.0 | 15.0 | 0.00 | 0.00 | 0.00 | 78 | 1011.6 |
| 20260504204055 | 81 | 76 | 7.0 | 16.0 | 0.00 | 0.00 | 0.00 | 78 | 1011.5 |
| 20260504203557 | 81 | 78 | 8.0 | 17.0 | 0.00 | 0.00 | 0.00 | 78 | 1011.4 |
| 20260504203054 | 81 | 78 | 8.0 | 17.0 | 0.00 | 0.00 | 0.00 | 78 | 1011.4 |
| 20260504202557 | 81 | 78 | 6.0 | 16.0 | 0.00 | 0.00 | 0.00 | 78 | 1011.2 |
| 20260504202059 | 81 | 75 | 9.0 | 22.0 | 0.00 | 0.00 | 0.00 | 79 | 1011.2 |
| 20260504201607 | 81 | 59 | 8.0 | 22.0 | 0.00 | 0.00 | 0.00 | 79 | 1011.2 |
| 20260504201057 | 81 | 94 | 7.0 | 16.0 | 0.00 | 0.00 | 0.00 | 79 | 1011.1 |
| 20260504200555 | 81 | 80 | 8.0 | 17.0 | 0.00 | 0.00 | 0.00 | 79 | 1011.0 |
| 20260504200100 | 81 | 82 | 8.0 | 17.0 | 0.00 | 0.00 | 0.00 | 79 | 1011.0 |
| 20260504195555 | 81 | 65 | 9.0 | 16.0 | 0.00 | 0.00 | 0.00 | 80 | 1011.0 |
| 20260504195058 | 81 | 89 | 8.0 | 16.0 | 0.00 | 0.00 | 0.00 | 80 | 1011.0 |
| 20260504194608 | 81 | 90 | 9.0 | 16.0 | 0.00 | 0.00 | 0.00 | 80 | 1011.0 |
| 20260504194055 | 81 | 83 | 7.0 | 14.0 | 0.00 | 0.00 | 0.00 | 80 | 1010.9 |
| 20260504193555 | 81 | 82 | 8.0 | 14.0 | 0.00 | 0.00 | 0.00 | 80 | 1010.8 |
| 20260504193056 | 81 | 74 | 7.0 | 14.0 | 0.00 | 0.00 | 0.00 | 81 | 1010.8 |
| 20260504192555 | 81 | 48 | 5.0 | 10.0 | 0.00 | 0.00 | 0.00 | 82 | 1010.8 |
| 20260504192057 | 81 | 92 | 5.0 | 10.0 | 0.00 | 0.00 | 0.00 | 82 | 1010.8 |
| 20260504191558 | 81 | 56 | 5.0 | 11.0 | 0.00 | 0.00 | 0.00 | 82 | 1010.7 |
| 20260504191057 | 81 | 76 | 5.0 | 11.0 | 0.00 | 0.00 | 0.00 | 82 | 1010.8 |
| 20260504190600 | 81 | 88 | 3.0 | 11.0 | 0.00 | 0.00 | 0.00 | 82 | 1010.8 |
| 20260504190125 | 81 | 78 | 4.0 | 10.0 | 0.00 | 0.00 | 0.00 | 82 | 1010.7 |
| 20260504185556 | 81 | 88 | 6.0 | 12.0 | 0.00 | 0.00 | 0.00 | 82 | 1010.4 |
| 20260504185100 | 81 | 102 | 4.0 | 12.0 | 0.00 | 0.00 | 0.00 | 82 | 1010.5 |
| 20260504184559 | 81 | 74 | 7.0 | 12.0 | 0.00 | 0.00 | 0.00 | 82 | 1010.4 |
| 20260504184102 | 81 | 84 | 4.0 | 15.0 | 0.00 | 0.00 | 0.00 | 82 | 1010.4 |
| 20260504183600 | 81 | 58 | 6.0 | 15.0 | 0.00 | 0.00 | 0.00 | 82 | 1010.3 |
| 20260504183058 | 81 | 76 | 9.0 | 15.0 | 0.00 | 0.00 | 0.00 | 82 | 1010.4 |
| 20260504182601 | 81 | 94 | 9.0 | 14.0 | 0.00 | 0.00 | 0.00 | 82 | 1010.4 |
| 20260504182059 | 81 | 94 | 4.0 | 11.0 | 0.00 | 0.00 | 0.00 | 82 | 1010.5 |
| 20260504181604 | 80 | 95 | 5.0 | 12.0 | 0.00 | 0.00 | 0.00 | 82 | 1010.4 |
| 20260504181059 | 80 | 94 | 6.0 | 12.0 | 0.00 | 0.00 | 0.00 | 82 | 1010.3 |
| 20260504180600 | 81 | 82 | 7.0 | 12.0 | 0.00 | 0.00 | 0.00 | 82 | 1010.3 |
| 20260504180155 | 81 | 80 | 4.0 | 12.0 | 0.00 | 0.00 | 0.00 | 82 | 1010.4 |
| 20260504175559 | 81 | 81 | 6.0 | 13.0 | 0.00 | 0.00 | 0.00 | 81 | 1010.4 |
| 20260504175101 | 81 | 103 | 7.0 | 13.0 | 0.00 | 0.00 | 0.00 | 81 | 1010.3 |
| 20260504174602 | 81 | 126 | 7.0 | 17.0 | 0.00 | 0.00 | 0.00 | 80 | 1010.4 |
| 20260504174100 | 81 | 92 | 8.0 | 17.0 | 0.00 | 0.00 | 0.00 | 79 | 1010.5 |